createdAt,value
2023-01-17T00:02:24.505Z,68.70
2023-01-17T00:07:37.303Z,65.38
2023-01-17T00:12:32.088Z,66.85
2023-01-17T00:17:25.280Z,70.00
2023-01-17T00:22:42.298Z,70.00
2023-01-17T00:27:33.920Z,68.03
2023-01-17T00:32:25.580Z,67.57
2023-01-17T00:37:17.203Z,75.22
2023-01-17T00:42:08.843Z,71.53
2023-01-17T00:47:18.922Z,69.60
2023-01-17T00:52:29.350Z,75.25
2023-01-17T00:57:39.928Z,71.25
2023-01-17T01:02:51.057Z,73.90
2023-01-17T01:08:01.687Z,70.75
2023-01-17T01:13:11.654Z,70.93
2023-01-17T01:18:27.091Z,70.10
2023-01-17T01:23:37.333Z,65.05
2023-01-17T01:28:47.248Z,64.40
2023-01-17T01:33:39.009Z,67.82
2023-01-17T01:38:32.185Z,62.53
2023-01-17T01:43:51.544Z,72.45
2023-01-17T01:48:57.638Z,75.57
2023-01-17T01:53:52.401Z,70.90
2023-01-17T01:58:47.652Z,66.63
2023-01-17T02:03:41.259Z,72.20
2023-01-17T02:08:33.551Z,72.15
2023-01-17T02:13:25.294Z,71.00
2023-01-17T02:18:33.512Z,70.75
2023-01-17T02:23:45.231Z,69.93
2023-01-17T02:28:39.868Z,71.15
2023-01-17T02:33:50.053Z,73.57
2023-01-17T02:38:49.962Z,69.03
2023-01-17T02:43:41.762Z,60.53
2023-01-17T02:48:36.706Z,66.00
2023-01-17T02:53:58.650Z,66.38
2023-01-17T02:59:24.191Z,68.10
2023-01-17T03:04:24.857Z,64.20
2023-01-17T03:09:17.950Z,64.95
2023-01-17T03:14:09.723Z,67.88
2023-01-17T03:19:01.702Z,70.90
2023-01-17T03:23:53.349Z,65.70
2023-01-17T03:28:45.041Z,59.20
2023-01-17T03:33:36.759Z,61.92
2023-01-17T03:38:29.380Z,58.03
2023-01-17T03:43:21.355Z,62.60
2023-01-17T03:48:13.482Z,63.92
2023-01-17T03:53:05.198Z,62.63
2023-01-17T03:57:56.875Z,60.67
2023-01-17T04:02:48.659Z,64.57
2023-01-17T04:07:41.154Z,63.25
2023-01-17T04:12:32.842Z,59.08
2023-01-17T04:17:24.949Z,55.88
2023-01-17T04:22:16.647Z,62.30
2023-01-17T04:27:09.154Z,62.25
2023-01-17T04:32:00.822Z,60.05
2023-01-17T04:36:52.507Z,57.13
2023-01-17T04:41:44.376Z,58.00
2023-01-17T04:46:36.062Z,60.80
2023-01-17T04:51:27.860Z,61.90
2023-01-17T04:56:19.905Z,62.17
2023-01-17T05:01:11.728Z,52.50
2023-01-17T05:06:03.530Z,57.30
2023-01-17T05:10:55.211Z,57.95
2023-01-17T05:15:47.136Z,57.50
2023-01-17T05:20:38.918Z,61.35
2023-01-17T05:25:32.266Z,54.83
2023-01-17T05:30:24.069Z,56.88
2023-01-17T05:35:19.700Z,54.03
2023-01-17T05:40:12.231Z,58.25
2023-01-17T05:45:04.242Z,57.55
2023-01-17T05:49:55.924Z,55.90
2023-01-17T05:54:47.761Z,55.15
2023-01-17T05:59:39.534Z,57.53
2023-01-17T06:04:31.268Z,57.42
2023-01-17T06:09:23.126Z,59.88
2023-01-17T06:14:14.831Z,61.00
2023-01-17T06:19:06.479Z,62.03
2023-01-17T06:23:58.174Z,63.42
2023-01-17T06:28:49.855Z,62.25
2023-01-17T06:33:41.542Z,59.35
2023-01-17T06:38:33.414Z,60.67
2023-01-17T06:43:25.163Z,63.08
2023-01-17T06:48:16.857Z,63.45
2023-01-17T06:53:08.581Z,61.60
2023-01-17T06:58:00.724Z,64.50
2023-01-17T07:02:52.853Z,64.05
2023-01-17T07:07:45.845Z,69.00
2023-01-17T07:12:37.498Z,70.70
2023-01-17T07:17:29.179Z,72.15
2023-01-17T07:22:20.887Z,76.47
2023-01-17T07:27:12.578Z,74.35
2023-01-17T07:32:04.355Z,66.43
2023-01-17T07:36:55.990Z,74.28
2023-01-17T07:41:47.858Z,69.00
2023-01-17T07:46:40.231Z,71.88
2023-01-17T07:51:32.150Z,74.25
2023-01-17T07:56:24.010Z,86.07
2023-01-17T08:01:16.671Z,76.03
2023-01-17T08:06:20.877Z,82.07
2023-01-17T08:11:13.205Z,80.88
2023-01-17T08:16:05.490Z,83.55
2023-01-17T08:20:57.322Z,74.25
2023-01-17T08:25:49.031Z,73.80
2023-01-17T08:30:40.718Z,73.97
2023-01-17T08:35:33.122Z,75.95
2023-01-17T08:40:25.976Z,73.90
2023-01-17T08:45:17.665Z,77.22
2023-01-17T08:50:09.821Z,73.30
2023-01-17T08:55:01.817Z,77.18
2023-01-17T08:59:53.490Z,78.00
2023-01-17T09:04:49.864Z,71.28
2023-01-17T09:09:41.975Z,68.10
2023-01-17T09:14:34.916Z,75.07
2023-01-17T09:19:27.071Z,74.25
2023-01-17T09:24:18.852Z,78.85
2023-01-17T09:29:10.558Z,77.60
2023-01-17T09:34:02.268Z,83.55
2023-01-17T09:38:58.634Z,83.80
2023-01-17T09:43:53.778Z,77.05
2023-01-17T09:48:46.382Z,77.40
2023-01-17T09:53:41.726Z,73.93
2023-01-17T09:58:56.624Z,79.65
2023-01-17T10:04:25.906Z,83.60
2023-01-17T10:09:29.538Z,78.78
2023-01-17T10:14:51.422Z,80.50
2023-01-17T10:19:46.125Z,80.50
2023-01-17T10:25:01.654Z,71.90
2023-01-17T10:29:54.269Z,73.53
2023-01-17T10:34:50.629Z,72.53
2023-01-17T10:39:49.114Z,73.72
2023-01-17T10:49:54.638Z,71.57
2023-01-17T10:55:14.582Z,71.72
2023-01-17T11:00:23.102Z,63.50
2023-01-17T11:05:23.017Z,62.95
2023-01-17T11:10:39.817Z,63.80
2023-01-17T11:15:35.114Z,59.42
2023-01-17T11:20:39.238Z,58.65
2023-01-17T11:25:34.089Z,57.72
2023-01-17T11:30:29.482Z,55.88
2023-01-17T11:35:30.397Z,57.05
2023-01-17T11:40:27.608Z,53.60
2023-01-17T11:45:32.110Z,54.28
2023-01-17T11:50:27.369Z,53.75
2023-01-17T11:55:22.962Z,54.85
2023-01-17T12:00:27.507Z,54.45
2023-01-17T12:05:51.515Z,58.67
2023-01-17T12:10:43.182Z,49.47
2023-01-17T12:16:00.344Z,48.38
2023-01-17T12:21:20.623Z,55.50
2023-01-17T12:26:26.274Z,48.28
2023-01-17T12:31:32.607Z,48.42
2023-01-17T12:36:27.554Z,51.78
2023-01-17T12:41:26.591Z,44.03
2023-01-17T12:46:38.522Z,44.13
2023-01-17T12:51:38.451Z,39.13
2023-01-17T12:56:35.873Z,36.72
2023-01-17T13:01:39.851Z,38.20
2023-01-17T13:06:48.538Z,34.22
2023-01-17T13:11:46.659Z,28.70
2023-01-17T13:16:50.098Z,31.42
2023-01-17T13:21:41.866Z,34.00
2023-01-17T13:26:52.319Z,28.13
2023-01-17T13:31:52.767Z,29.88
2023-01-17T13:37:06.306Z,34.65
2023-01-17T13:42:12.974Z,28.60
2023-01-17T13:47:11.324Z,28.75
2023-01-17T13:52:05.173Z,29.08
2023-01-17T13:57:39.928Z,25.20
2023-01-17T14:02:31.587Z,22.70
2023-01-17T14:07:26.486Z,21.58
2023-01-17T14:12:28.038Z,18.63
2023-01-17T14:17:25.890Z,17.70
2023-01-17T14:22:20.531Z,12.13
2023-01-17T14:27:19.663Z,10.80
2023-01-17T14:32:23.684Z,10.40
2023-01-17T14:37:27.312Z,15.07
2023-01-17T14:42:22.531Z,10.65
2023-01-17T14:47:15.735Z,9.88
2023-01-17T14:52:15.958Z,12.45
2023-01-17T14:57:39.953Z,11.63
2023-01-17T15:02:32.132Z,9.10
2023-01-17T15:07:25.944Z,11.15
2023-01-17T15:12:19.139Z,10.05
2023-01-17T15:17:18.324Z,9.50
2023-01-17T15:22:10.548Z,19.95
2023-01-17T15:27:02.385Z,18.38
2023-01-17T15:31:58.247Z,20.17
2023-01-17T15:36:50.172Z,13.55
2023-01-17T15:41:42.025Z,11.10
2023-01-17T15:46:42.721Z,8.75
2023-01-17T15:51:38.859Z,9.13
2023-01-17T15:56:32.704Z,9.55
2023-01-17T16:01:27.312Z,8.88
2023-01-17T16:06:45.679Z,8.02
2023-01-17T16:11:37.369Z,9.17
2023-01-17T16:16:29.167Z,8.85
2023-01-17T16:21:26.943Z,9.20
2023-01-17T16:26:20.089Z,9.43
2023-01-17T16:31:12.005Z,7.35
2023-01-17T16:36:04.018Z,6.70
2023-01-17T16:40:55.804Z,9.07
2023-01-17T16:45:50.399Z,13.88
2023-01-17T16:50:50.802Z,9.63
2023-01-17T16:55:42.935Z,12.27
2023-01-17T17:00:34.553Z,8.02
2023-01-17T17:05:26.715Z,10.07
2023-01-17T17:10:20.210Z,14.40
2023-01-17T17:15:13.036Z,14.10
2023-01-17T17:20:06.124Z,10.43
2023-01-17T17:24:57.894Z,12.73
2023-01-17T17:29:49.521Z,10.18
2023-01-17T17:34:41.174Z,12.60
2023-01-17T17:39:32.823Z,16.55
2023-01-17T17:44:24.618Z,12.05
2023-01-17T17:49:17.194Z,11.63
2023-01-17T17:54:11.431Z,12.65
2023-01-17T17:59:05.012Z,11.88
2023-01-17T18:04:01.388Z,15.35
2023-01-17T18:08:53.723Z,14.25
2023-01-17T18:13:50.587Z,13.73
2023-01-17T18:18:45.749Z,14.93
2023-01-17T18:23:38.810Z,13.48
2023-01-17T18:28:30.547Z,14.07
2023-01-17T18:33:22.271Z,13.35
2023-01-17T18:38:14.051Z,13.73
2023-01-17T18:43:05.695Z,11.00
2023-01-17T18:47:57.394Z,10.50
2023-01-17T18:52:49.132Z,18.98
2023-01-17T18:57:40.878Z,17.77
2023-01-17T19:02:32.505Z,18.90
2023-01-17T19:07:29.062Z,20.38
2023-01-17T19:12:20.850Z,20.27
2023-01-17T19:17:12.559Z,17.67
2023-01-17T19:22:04.282Z,17.02
2023-01-17T19:26:56.529Z,20.98
2023-01-17T19:31:48.253Z,21.30
2023-01-17T19:36:40.038Z,21.88
2023-01-17T19:41:32.834Z,33.05
2023-01-17T19:46:26.173Z,47.97
2023-01-17T19:51:18.042Z,27.58
2023-01-17T19:56:18.194Z,30.95
2023-01-17T20:01:18.926Z,26.77
2023-01-17T20:06:12.681Z,26.00
2023-01-17T20:11:10.751Z,19.50
2023-01-17T20:16:07.465Z,19.00
2023-01-17T20:21:08.191Z,20.40
2023-01-17T20:26:00.648Z,15.60
2023-01-17T20:30:53.543Z,26.83
2023-01-17T20:35:45.216Z,19.73
2023-01-17T20:40:36.935Z,20.95
2023-01-17T20:45:28.873Z,20.92
2023-01-17T20:50:21.622Z,17.20
2023-01-17T20:55:13.602Z,19.05
2023-01-17T21:00:06.598Z,19.17
2023-01-17T21:04:58.787Z,17.45
2023-01-17T21:09:50.455Z,17.90
2023-01-17T21:14:43.030Z,19.73
2023-01-17T21:19:35.108Z,21.90
2023-01-17T21:24:28.636Z,23.33
2023-01-17T21:29:20.380Z,21.02
2023-01-17T21:34:13.865Z,17.48
2023-01-17T21:39:12.455Z,24.50
2023-01-17T21:48:59.914Z,22.27
2023-01-17T21:53:51.586Z,21.80
2023-01-17T21:58:43.349Z,21.65
2023-01-17T22:03:35.966Z,21.45
2023-01-17T22:08:35.367Z,21.95
2023-01-17T22:13:32.320Z,21.88
2023-01-17T22:18:24.033Z,22.38
2023-01-17T22:23:15.736Z,20.65
2023-01-17T22:31:37.942Z,17.75
2023-01-17T22:37:16.158Z,24.10
2023-01-17T22:42:08.419Z,18.38
2023-01-17T22:47:00.299Z,18.95
2023-01-17T22:51:51.985Z,19.30
2023-01-17T22:56:43.675Z,17.48
2023-01-17T23:01:35.350Z,17.40
2023-01-17T23:06:32.767Z,18.48
2023-01-17T23:11:42.912Z,18.50
2023-01-17T23:16:53.650Z,16.65
2023-01-17T23:22:03.928Z,16.55
2023-01-17T23:27:13.934Z,16.52
2023-01-17T23:32:06.006Z,18.05
2023-01-17T23:36:57.682Z,20.15
2023-01-17T23:42:07.951Z,17.05
2023-01-17T23:47:00.233Z,18.20
2023-01-17T23:51:52.992Z,19.63
2023-01-17T23:56:44.727Z,17.80
